createdAt,value
2022-12-01T00:01:24.385Z,0.04
2022-12-01T00:04:25.942Z,-0.17
2022-12-01T00:07:27.527Z,-0.31
2022-12-01T00:10:29.132Z,-0.26
2022-12-01T00:13:30.763Z,-0.19
2022-12-01T00:16:33.467Z,-0.32
2022-12-01T00:19:35.154Z,-0.27
2022-12-01T00:22:36.704Z,-0.22
2022-12-01T00:25:38.335Z,-0.44
2022-12-01T00:28:39.952Z,-0.48
2022-12-01T00:31:42.174Z,-0.29
2022-12-01T00:34:43.761Z,-0.35
2022-12-01T00:37:45.296Z,-0.42
2022-12-01T00:40:46.866Z,-0.67
2022-12-01T00:43:48.455Z,-0.60
2022-12-01T00:46:50.054Z,-0.72
2022-12-01T00:49:52.407Z,-0.65
2022-12-01T00:52:53.965Z,-0.69
2022-12-01T00:55:55.586Z,-0.66
2022-12-01T00:58:57.324Z,-0.85
2022-12-01T01:01:59.023Z,-0.84
2022-12-01T01:05:00.581Z,-0.78
2022-12-01T01:08:02.144Z,-0.73
2022-12-01T01:11:04.977Z,-0.74
2022-12-01T01:14:07.385Z,-0.79
2022-12-01T01:17:08.972Z,-0.56
2022-12-01T01:20:11.015Z,-0.62
2022-12-01T01:23:12.556Z,-0.73
2022-12-01T01:26:18.497Z,-0.71
2022-12-01T01:29:20.066Z,-0.68
2022-12-01T01:32:21.824Z,-0.73
2022-12-01T01:35:23.384Z,-0.58
2022-12-01T01:38:24.921Z,-0.68
2022-12-01T01:41:26.498Z,-0.58
2022-12-01T01:44:49.102Z,-0.61
2022-12-01T01:47:52.829Z,-0.61
2022-12-01T01:50:54.913Z,-0.44
2022-12-01T01:54:02.343Z,-0.55
2022-12-01T01:57:07.536Z,-0.56
2022-12-01T02:00:12.536Z,-0.70
2022-12-01T02:03:16.883Z,-0.55
2022-12-01T02:06:18.572Z,-0.47
2022-12-01T02:09:20.120Z,-0.56
2022-12-01T02:12:49.379Z,-0.53
2022-12-01T02:15:53.922Z,-0.51
2022-12-01T02:19:35.908Z,-0.60
2022-12-01T02:23:00.974Z,-0.62
2022-12-01T02:26:19.422Z,-0.69
2022-12-01T02:29:32.974Z,-0.71
2022-12-01T02:32:45.475Z,-0.61
2022-12-01T02:36:12.627Z,-0.66
2022-12-01T02:39:30.481Z,-0.65
2022-12-01T02:42:49.892Z,-0.76
2022-12-01T02:46:31.306Z,-0.75
2022-12-01T02:49:36.836Z,-0.79
2022-12-01T02:52:41.130Z,-0.77
2022-12-01T02:55:51.706Z,-0.60
2022-12-01T02:58:53.465Z,-0.83
2022-12-01T03:02:01.384Z,-0.87
2022-12-01T03:05:26.628Z,-1.12
2022-12-01T03:09:16.736Z,-1.04
2022-12-01T03:12:24.384Z,-1.00
2022-12-01T03:15:45.040Z,-1.09
2022-12-01T03:19:24.939Z,-0.89
2022-12-01T03:22:37.823Z,-1.11
2022-12-01T03:25:43.350Z,-1.19
2022-12-01T03:28:52.342Z,-1.01
2022-12-01T03:32:13.144Z,-1.04
2022-12-01T03:35:20.684Z,-1.33
2022-12-01T03:38:24.613Z,-1.19
2022-12-01T03:41:33.260Z,-1.30
2022-12-01T03:44:47.791Z,-1.34
2022-12-01T03:47:49.392Z,-1.32
2022-12-01T03:51:12.403Z,-1.11
2022-12-01T03:54:21.416Z,-1.27
2022-12-01T03:57:31.884Z,-1.38
2022-12-01T04:00:33.953Z,-1.04
2022-12-01T04:03:35.603Z,-1.12
2022-12-01T04:06:37.494Z,-1.26
2022-12-01T04:09:41.436Z,-1.32
2022-12-01T04:12:43.006Z,-1.32
2022-12-01T04:15:44.585Z,-1.30
2022-12-01T04:18:46.511Z,-1.47
2022-12-01T04:21:48.091Z,-1.48
2022-12-01T04:24:49.782Z,-1.50
2022-12-01T04:27:51.573Z,-1.52
2022-12-01T04:30:53.340Z,-1.49
2022-12-01T04:33:56.177Z,-1.72
2022-12-01T04:36:57.758Z,-1.76
2022-12-01T04:39:59.304Z,-1.58
2022-12-01T04:43:00.846Z,-1.68
2022-12-01T04:46:02.903Z,-1.55
2022-12-01T04:49:05.552Z,-1.79
2022-12-01T04:52:07.563Z,-1.86
2022-12-01T04:55:09.613Z,-1.75
2022-12-01T04:58:11.170Z,-1.95
2022-12-01T05:01:14.907Z,-1.94
2022-12-01T05:04:16.678Z,-1.84
2022-12-01T05:07:18.321Z,-1.99
2022-12-01T05:10:20.256Z,-1.92
2022-12-01T05:13:21.817Z,-2.01
2022-12-01T05:16:25.840Z,-2.20
2022-12-01T05:19:46.196Z,-2.17
2022-12-01T05:23:04.961Z,-2.12
2022-12-01T05:26:14.359Z,-2.14
2022-12-01T05:29:16.184Z,-2.16
2022-12-01T05:32:17.728Z,-2.06
2022-12-01T05:35:19.341Z,-2.29
2022-12-01T05:38:21.144Z,-2.34
2022-12-01T05:41:22.789Z,-2.29
2022-12-01T05:44:24.346Z,-2.35
2022-12-01T05:47:25.891Z,-2.10
2022-12-01T05:50:29.375Z,-2.10
2022-12-01T05:53:31.140Z,-2.11
2022-12-01T05:56:32.696Z,-2.33
2022-12-01T05:59:34.295Z,-2.31
2022-12-01T06:02:35.853Z,-2.38
2022-12-01T06:05:37.418Z,-2.37
2022-12-01T06:08:38.975Z,-2.24
2022-12-01T06:11:40.682Z,-2.19
2022-12-01T06:14:42.570Z,-2.27
2022-12-01T06:17:44.309Z,-2.20
2022-12-01T06:20:45.995Z,-1.96
2022-12-01T06:23:47.721Z,-1.92
2022-12-01T06:26:49.401Z,-2.08
2022-12-01T06:29:51.161Z,-1.91
2022-12-01T06:32:53.017Z,-1.86
2022-12-01T06:35:59.284Z,-1.74
2022-12-01T06:39:00.842Z,-1.60
2022-12-01T06:42:02.439Z,-1.57
2022-12-01T06:45:04.236Z,-1.38
2022-12-01T06:48:05.991Z,-0.99
2022-12-01T06:51:07.721Z,-0.87
2022-12-01T06:54:11.631Z,-0.70
2022-12-01T06:57:13.336Z,-0.15
2022-12-01T07:00:15.635Z,-0.10
2022-12-01T07:03:17.597Z,-0.20
2022-12-01T07:06:19.182Z,-0.08
2022-12-01T07:09:20.790Z,-0.40
2022-12-01T07:12:24.701Z,0.08
2022-12-01T07:15:28.697Z,0.02
2022-12-01T07:18:31.127Z,0.27
2022-12-01T07:21:32.696Z,0.26
2022-12-01T07:24:34.341Z,0.21
2022-12-01T07:27:36.091Z,0.50
2022-12-01T07:30:37.679Z,1.02
2022-12-01T07:33:39.672Z,1.25
2022-12-01T07:36:41.399Z,1.89
2022-12-01T07:39:43.150Z,2.19
2022-12-01T07:42:44.692Z,2.62
2022-12-01T07:45:46.568Z,1.59
2022-12-01T07:48:48.908Z,1.45
2022-12-01T07:51:50.485Z,1.51
2022-12-01T07:54:52.744Z,1.49
2022-12-01T07:57:54.328Z,1.43
2022-12-01T08:00:55.990Z,1.26
2022-12-01T08:03:59.327Z,1.53
2022-12-01T08:07:00.943Z,1.30
2022-12-01T08:10:02.583Z,1.41
2022-12-01T08:13:04.501Z,1.42
2022-12-01T08:16:08.250Z,1.67
2022-12-01T08:19:10.952Z,2.38
2022-12-01T08:22:12.485Z,4.13
2022-12-01T08:25:14.168Z,6.13
2022-12-01T08:28:15.731Z,6.72
2022-12-01T08:31:25.148Z,6.92
2022-12-01T08:34:27.345Z,8.28
2022-12-01T08:37:28.908Z,9.25
2022-12-01T08:40:30.846Z,9.29
2022-12-01T08:43:56.706Z,9.85
2022-12-01T08:46:54.581Z,12.91
2022-12-01T08:49:56.226Z,14.77
2022-12-01T08:52:57.776Z,14.98
2022-12-01T08:56:01.811Z,16.37
2022-12-01T08:59:03.980Z,15.93
2022-12-01T09:02:07.312Z,18.47
2022-12-01T09:05:09.309Z,16.70
2022-12-01T09:08:29.554Z,18.06
2022-12-01T09:11:31.187Z,18.28
2022-12-01T09:14:38.742Z,17.45
2022-12-01T09:17:40.343Z,17.57
2022-12-01T09:20:41.889Z,18.51
2022-12-01T09:23:43.485Z,19.51
2022-12-01T09:26:45.097Z,19.07
2022-12-01T09:29:46.977Z,17.06
2022-12-01T09:32:48.656Z,13.46
2022-12-01T09:35:50.297Z,11.15
2022-12-01T09:38:52.062Z,9.99
2022-12-01T09:41:59.473Z,8.48
2022-12-01T09:45:04.378Z,7.17
2022-12-01T09:48:07.809Z,6.34
2022-12-01T09:51:17.250Z,5.28
2022-12-01T09:54:18.940Z,5.35
2022-12-01T09:57:36.645Z,4.95
2022-12-01T10:00:42.991Z,5.03
2022-12-01T10:03:53.153Z,5.29
2022-12-01T10:06:54.617Z,5.34
2022-12-01T10:09:59.246Z,4.99
2022-12-01T10:13:00.935Z,5.24
2022-12-01T10:16:07.873Z,4.80
2022-12-01T10:19:41.251Z,4.92
2022-12-01T10:22:50.643Z,4.83
2022-12-01T10:25:52.094Z,4.75
2022-12-01T10:29:08.968Z,4.60
2022-12-01T10:32:30.641Z,4.59
2022-12-01T10:35:37.677Z,4.31
2022-12-01T10:38:39.343Z,4.42
2022-12-01T10:41:41.469Z,4.32
2022-12-01T10:44:44.311Z,4.56
2022-12-01T10:48:24.323Z,4.33
2022-12-01T10:51:27.905Z,4.37
2022-12-01T10:54:34.133Z,4.25
2022-12-01T10:57:37.595Z,4.10
2022-12-01T11:01:09.495Z,4.03
2022-12-01T11:04:21.270Z,4.12
2022-12-01T11:07:29.777Z,4.21
2022-12-01T11:10:37.364Z,4.49
2022-12-01T11:13:41.986Z,4.55
2022-12-01T11:16:49.405Z,4.65
2022-12-01T11:19:51.205Z,4.68
2022-12-01T11:22:54.190Z,4.83
2022-12-01T11:26:14.031Z,4.98
2022-12-01T11:29:38.917Z,4.81
2022-12-01T11:32:40.579Z,4.85
2022-12-01T11:35:48.767Z,4.83
2022-12-01T11:38:54.945Z,5.02
2022-12-01T11:42:02.147Z,4.76
2022-12-01T11:45:03.616Z,5.70
2022-12-01T11:48:17.295Z,5.51
2022-12-01T11:51:21.549Z,5.46
2022-12-01T11:54:25.727Z,5.50
2022-12-01T11:57:34.986Z,5.06
2022-12-01T12:00:54.488Z,5.16
2022-12-01T12:04:04.610Z,5.24
2022-12-01T12:07:24.903Z,5.24
2022-12-01T12:10:32.599Z,5.17
2022-12-01T12:13:52.133Z,5.01
2022-12-01T12:17:09.088Z,4.77
2022-12-01T12:20:52.674Z,4.82
2022-12-01T12:24:36.783Z,4.80
2022-12-01T12:28:08.419Z,4.82
2022-12-01T12:31:44.258Z,5.02
2022-12-01T12:34:58.934Z,4.90
2022-12-01T12:38:00.427Z,4.99
2022-12-01T12:41:29.913Z,5.05
2022-12-01T12:44:50.542Z,4.85
2022-12-01T12:48:05.805Z,5.13
2022-12-01T12:51:10.434Z,5.32
2022-12-01T12:54:12.080Z,5.20
2022-12-01T12:57:34.794Z,5.21
2022-12-01T13:00:42.345Z,5.27
2022-12-01T13:03:59.667Z,5.26
2022-12-01T13:07:15.247Z,5.42
2022-12-01T13:10:48.201Z,5.51
2022-12-01T13:13:49.647Z,5.74
2022-12-01T13:16:56.272Z,5.74
2022-12-01T13:19:57.855Z,5.77
2022-12-01T13:23:02.495Z,5.71
2022-12-01T13:26:08.216Z,5.49
2022-12-01T13:29:23.375Z,5.74
2022-12-01T13:32:30.572Z,5.89
2022-12-01T13:35:37.454Z,5.65
2022-12-01T13:38:40.154Z,5.47
2022-12-01T13:41:44.289Z,5.52
2022-12-01T13:44:55.722Z,5.21
2022-12-01T13:48:01.577Z,5.30
2022-12-01T13:51:04.082Z,5.28
2022-12-01T13:54:26.460Z,5.32
2022-12-01T13:57:30.621Z,5.28
2022-12-01T14:00:34.998Z,5.19
2022-12-01T14:03:40.828Z,4.97
2022-12-01T14:06:50.573Z,4.87
2022-12-01T14:09:56.166Z,4.80
2022-12-01T14:13:02.705Z,4.68
2022-12-01T14:16:05.324Z,4.50
2022-12-01T14:19:25.828Z,4.56
2022-12-01T14:22:38.334Z,4.36
2022-12-01T14:25:41.610Z,4.31
2022-12-01T14:28:55.466Z,4.06
2022-12-01T14:31:59.973Z,4.08
2022-12-01T14:35:04.991Z,3.89
2022-12-01T14:38:10.148Z,3.59
2022-12-01T14:41:22.695Z,3.69
2022-12-01T14:44:38.089Z,3.54
2022-12-01T14:47:44.596Z,3.30
2022-12-01T14:50:50.307Z,3.09
2022-12-01T14:53:52.543Z,2.96
2022-12-01T14:57:02.697Z,2.93
2022-12-01T15:00:12.751Z,2.82
2022-12-01T15:03:14.779Z,2.94
2022-12-01T15:06:19.412Z,2.94
2022-12-01T15:09:33.368Z,2.79
2022-12-01T15:12:44.380Z,2.78
2022-12-01T15:16:03.747Z,2.48
2022-12-01T15:19:32.403Z,2.27
2022-12-01T15:22:33.965Z,2.46
2022-12-01T15:25:37.078Z,2.30
2022-12-01T15:28:38.613Z,2.13
2022-12-01T15:31:40.737Z,2.01
2022-12-01T15:34:48.366Z,2.02
2022-12-01T15:37:52.572Z,1.96
2022-12-01T15:44:27.254Z,1.92
2022-12-01T15:47:43.823Z,1.93
2022-12-01T15:50:59.168Z,1.89
2022-12-01T15:54:02.938Z,1.86
2022-12-01T15:57:05.981Z,1.94
2022-12-01T16:00:18.693Z,1.81
2022-12-01T16:03:20.296Z,1.77
2022-12-01T16:06:28.730Z,1.79
2022-12-01T16:10:03.096Z,1.64
2022-12-01T16:13:42.239Z,1.55
2022-12-01T16:16:46.411Z,1.56
2022-12-01T16:19:48.255Z,1.68
2022-12-01T16:22:58.931Z,1.60
2022-12-01T16:26:02.137Z,1.74
2022-12-01T16:29:19.942Z,1.59
2022-12-01T16:32:27.766Z,1.60
2022-12-01T16:35:32.509Z,1.73
2022-12-01T16:38:34.686Z,1.72
2022-12-01T16:41:39.156Z,1.64
2022-12-01T16:44:42.077Z,1.50
2022-12-01T16:47:46.072Z,1.43
2022-12-01T16:50:48.950Z,1.35
2022-12-01T16:53:51.212Z,1.31
2022-12-01T16:56:53.212Z,1.06
2022-12-01T16:59:55.171Z,1.14
2022-12-01T17:02:58.035Z,1.17
2022-12-01T17:06:04.527Z,1.19
2022-12-01T17:09:06.373Z,1.06
2022-12-01T17:12:08.005Z,1.06
2022-12-01T17:15:10.420Z,1.12
2022-12-01T17:18:13.042Z,1.09
2022-12-01T17:21:14.895Z,1.10
2022-12-01T17:24:19.230Z,1.07
2022-12-01T17:27:23.493Z,0.87
2022-12-01T17:30:25.560Z,0.77
2022-12-01T17:33:27.676Z,0.94
2022-12-01T17:36:29.692Z,0.98
2022-12-01T17:39:31.862Z,1.09
2022-12-01T17:42:34.047Z,1.14
2022-12-01T17:45:35.612Z,0.92
2022-12-01T17:48:39.275Z,0.96
2022-12-01T17:51:41.789Z,1.01
2022-12-01T17:54:43.560Z,1.10
2022-12-01T17:57:45.257Z,1.02
2022-12-01T18:00:48.723Z,0.85
2022-12-01T18:03:51.021Z,1.10
2022-12-01T18:06:54.525Z,0.90
2022-12-01T18:09:56.667Z,0.79
2022-12-01T18:12:58.341Z,0.76
2022-12-01T18:16:00.756Z,0.84
2022-12-01T18:19:04.118Z,0.94
2022-12-01T18:22:05.745Z,0.95
2022-12-01T18:25:07.884Z,1.25
2022-12-01T18:28:12.519Z,1.31
2022-12-01T18:31:16.385Z,1.61
2022-12-01T18:34:18.325Z,1.52
2022-12-01T18:37:21.128Z,1.39
2022-12-01T18:40:27.334Z,1.48
2022-12-01T18:43:31.374Z,1.37
2022-12-01T18:46:33.678Z,1.36
2022-12-01T18:49:35.554Z,1.35
2022-12-01T18:52:40.720Z,1.28
2022-12-01T18:55:42.725Z,1.47
2022-12-01T18:58:44.310Z,1.36
2022-12-01T19:01:48.067Z,0.90
2022-12-01T19:04:50.710Z,0.90
2022-12-01T19:07:55.818Z,0.92
2022-12-01T19:11:03.521Z,0.83
2022-12-01T19:14:05.505Z,0.80
2022-12-01T19:17:07.559Z,0.90
2022-12-01T19:20:10.128Z,0.76
2022-12-01T19:23:12.246Z,0.67
2022-12-01T19:26:19.982Z,0.66
2022-12-01T19:29:22.220Z,0.68
2022-12-01T19:32:24.283Z,0.64
2022-12-01T19:35:26.365Z,0.74
2022-12-01T19:38:28.000Z,0.49
2022-12-01T19:41:30.098Z,0.55
2022-12-01T19:44:32.168Z,0.73
2022-12-01T19:47:34.999Z,0.73
2022-12-01T19:50:36.888Z,0.49
2022-12-01T19:53:38.465Z,0.64
2022-12-01T19:56:41.285Z,0.29
2022-12-01T19:59:43.420Z,0.38
2022-12-01T20:02:46.598Z,0.33
2022-12-01T20:05:48.674Z,0.38
2022-12-01T20:08:51.437Z,0.24
2022-12-01T20:11:54.237Z,0.30
2022-12-01T20:14:56.289Z,0.29
2022-12-01T20:17:58.265Z,0.20
2022-12-01T20:21:20.076Z,0.08
2022-12-01T20:24:23.276Z,-0.08
2022-12-01T20:27:25.639Z,-0.14
2022-12-01T20:30:28.484Z,-0.03
2022-12-01T20:33:30.827Z,-0.17
2022-12-01T20:36:33.026Z,-0.32
2022-12-01T20:39:37.376Z,-0.38
2022-12-01T20:42:40.133Z,-0.31
2022-12-01T20:45:42.267Z,-0.30
2022-12-01T20:48:44.664Z,-0.41
2022-12-01T20:51:47.365Z,-0.46
2022-12-01T20:54:49.471Z,-0.41
2022-12-01T20:58:00.496Z,-0.49
2022-12-01T21:01:11.741Z,-0.47
2022-12-01T21:04:14.075Z,-0.19
2022-12-01T21:07:15.703Z,-0.29
2022-12-01T21:10:20.160Z,-0.52
2022-12-01T21:13:41.991Z,-0.34
2022-12-01T21:16:48.321Z,-0.55
2022-12-01T21:20:11.700Z,-0.42
2022-12-01T21:23:16.038Z,-0.47
2022-12-01T21:26:19.032Z,-0.58
2022-12-01T21:29:22.098Z,-0.45
2022-12-01T21:32:34.478Z,-0.42
2022-12-01T21:35:36.038Z,-0.63
2022-12-01T21:38:37.642Z,-0.65
2022-12-01T21:41:39.415Z,-0.58
2022-12-01T21:44:41.035Z,-0.67
2022-12-01T21:47:42.621Z,-0.74
2022-12-01T21:50:48.104Z,-0.76
2022-12-01T21:53:56.357Z,-0.84
2022-12-01T21:56:58.672Z,-0.75
2022-12-01T22:00:29.284Z,-0.91
2022-12-01T22:03:33.753Z,-0.91
2022-12-01T22:06:40.229Z,-0.62
2022-12-01T22:09:41.777Z,-0.70
2022-12-01T22:12:43.333Z,-0.53
2022-12-01T22:15:44.988Z,-0.39
2022-12-01T22:18:52.513Z,-0.45
2022-12-01T22:22:02.904Z,-0.46
2022-12-01T22:25:27.704Z,-0.48
2022-12-01T22:28:29.250Z,-0.50
2022-12-01T22:31:31.482Z,-0.50
2022-12-01T22:34:34.403Z,-0.39
2022-12-01T22:37:59.772Z,-0.17
2022-12-01T22:41:01.304Z,-0.55
2022-12-01T22:44:02.967Z,-0.29
2022-12-01T22:47:04.957Z,-0.28
2022-12-01T22:50:32.370Z,-0.38
2022-12-01T22:53:33.925Z,-0.30
2022-12-01T22:56:39.657Z,-0.37
2022-12-01T22:59:43.533Z,-0.38
2022-12-01T23:02:48.467Z,-0.50
2022-12-01T23:05:55.579Z,-0.68
2022-12-01T23:08:57.117Z,-0.60
2022-12-01T23:12:05.101Z,-0.65
2022-12-01T23:15:36.438Z,-0.73
2022-12-01T23:18:38.080Z,-0.61
2022-12-01T23:21:39.669Z,-0.77
2022-12-01T23:24:41.361Z,-0.64
2022-12-01T23:27:45.033Z,-0.65
2022-12-01T23:30:49.558Z,-0.63
2022-12-01T23:33:51.598Z,-0.63
2022-12-01T23:36:53.174Z,-0.55
2022-12-01T23:39:55.831Z,-0.56
2022-12-01T23:43:15.899Z,-0.35
2022-12-01T23:46:24.170Z,-0.40
2022-12-01T23:49:30.138Z,-0.19
2022-12-01T23:52:36.383Z,-0.38
2022-12-01T23:55:37.944Z,-0.28
2022-12-01T23:58:39.494Z,-0.11
